Terminal Aerodrome Forecast
Issued by NWS

Home | Current Version | Previous Version | Text Only | Print | Product List | Glossary On
Versions: 1 2 3 4 5 6 7 8 9 10 11 12 13 14 15 16
000
FTUS42 TJSJ 262331
TAFIST
TAF
TIST 262331Z 2700/2724 09010KT P6SM OVC090
     FM271300 13013G19KT P6SM SCT030
     FM272100 08009KT P6SM FEW035=

USA.gov is the U.S. government's official web portal to all federal, state and local government web resources and services.